Meadow, Utah
Current Conditions -  °F | °C
As of 11:15 AM on Monday 24 Nov 2014 (Local Time) from KDTA Reporting Station
Clear Clear  
Wind Chill: 31°   Ceiling: Unl
Heat Index: 36°   Visibility: 10mi
Dew Point: 20°   Wind: 7mph
Humidity: 52%   Direction: 350°N
Pressure: 30.38"   Gusts: NA
Location:  38.89°N, 112.41°W
Report Text: KDTA 241815Z AUTO 35006KT 10SM CLR 02/M06 A3038 RMK AO1 T00241065
Loading
Personal Weather Stations






























Interactive Weather Map New forecast layout! Learn more

10-Day Weather Forecast

Advertisements
Track Severe Weather on mobile